sensor_id;sensor_type;location;lat;lon;timestamp;P1;durP1;ratioP1;P2;durP2;ratioP2
67508;SDS011;54354;44.724;11.284;2022-09-09T00:04:59;6.28;;;4.78;;
67508;SDS011;54354;44.724;11.284;2022-09-09T00:07:41;6.90;;;4.70;;
67508;SDS011;54354;44.724;11.284;2022-09-09T00:15:26;11.30;;;4.30;;
67508;SDS011;54354;44.724;11.284;2022-09-09T00:18:12;7.75;;;4.28;;
67508;SDS011;54354;44.724;11.284;2022-09-09T00:20:47;11.50;;;4.20;;
67508;SDS011;54354;44.724;11.284;2022-09-09T00:28:27;6.55;;;3.72;;
67508;SDS011;54354;44.724;11.284;2022-09-09T00:31:04;8.02;;;3.90;;
67508;SDS011;54354;44.724;11.284;2022-09-09T00:33:36;4.95;;;3.75;;
67508;SDS011;54354;44.724;11.284;2022-09-09T00:36:04;6.70;;;3.80;;
67508;SDS011;54354;44.724;11.284;2022-09-09T00:38:41;6.90;;;3.55;;
67508;SDS011;54354;44.724;11.284;2022-09-09T00:47:19;6.00;;;3.45;;
67508;SDS011;54354;44.724;11.284;2022-09-09T00:52:43;8.50;;;3.47;;
67508;SDS011;54354;44.724;11.284;2022-09-09T00:55:41;10.48;;;3.22;;
67508;SDS011;54354;44.724;11.284;2022-09-09T00:58:15;6.45;;;3.28;;
67508;SDS011;54354;44.724;11.284;2022-09-09T01:00:45;6.50;;;3.45;;
67508;SDS011;54354;44.724;11.284;2022-09-09T01:11:22;6.30;;;3.25;;
67508;SDS011;54354;44.724;11.284;2022-09-09T01:13:55;9.77;;;3.25;;
67508;SDS011;54354;44.724;11.284;2022-09-09T01:16:28;9.23;;;3.50;;
67508;SDS011;54354;44.724;11.284;2022-09-09T01:18:55;6.28;;;3.22;;
67508;SDS011;54354;44.724;11.284;2022-09-09T01:27:15;10.23;;;4.30;;
67508;SDS011;54354;44.724;11.284;2022-09-09T01:29:43;10.18;;;3.65;;
67508;SDS011;54354;44.724;11.284;2022-09-09T01:35:05;10.40;;;4.40;;
67508;SDS011;54354;44.724;11.284;2022-09-09T01:37:35;10.18;;;4.45;;
67508;SDS011;54354;44.724;11.284;2022-09-09T01:40:01;9.30;;;4.68;;
67508;SDS011;54354;44.724;11.284;2022-09-09T01:42:27;12.85;;;5.25;;
67508;SDS011;54354;44.724;11.284;2022-09-09T01:44:53;7.57;;;4.40;;
67508;SDS011;54354;44.724;11.284;2022-09-09T01:47:19;13.90;;;5.07;;
67508;SDS011;54354;44.724;11.284;2022-09-09T01:50:06;10.68;;;5.75;;
67508;SDS011;54354;44.724;11.284;2022-09-09T01:52:36;12.55;;;5.88;;
67508;SDS011;54354;44.724;11.284;2022-09-09T01:55:04;10.75;;;5.82;;
67508;SDS011;54354;44.724;11.284;2022-09-09T01:57:41;10.63;;;6.03;;
67508;SDS011;54354;44.724;11.284;2022-09-09T02:00:21;13.55;;;6.65;;
67508;SDS011;54354;44.724;11.284;2022-09-09T02:03:00;11.10;;;6.00;;
67508;SDS011;54354;44.724;11.284;2022-09-09T02:06:07;15.52;;;6.72;;
67508;SDS011;54354;44.724;11.284;2022-09-09T02:08:49;9.85;;;7.10;;
67508;SDS011;54354;44.724;11.284;2022-09-09T02:13:49;15.90;;;7.38;;
67508;SDS011;54354;44.724;11.284;2022-09-09T02:16:23;17.60;;;7.82;;
67508;SDS011;54354;44.724;11.284;2022-09-09T02:19:17;17.63;;;8.02;;
67508;SDS011;54354;44.724;11.284;2022-09-09T02:22:02;11.88;;;7.70;;
67508;SDS011;54354;44.724;11.284;2022-09-09T02:24:30;10.80;;;7.45;;
67508;SDS011;54354;44.724;11.284;2022-09-09T02:27:11;12.07;;;7.65;;
67508;SDS011;54354;44.724;11.284;2022-09-09T02:29:40;14.38;;;7.78;;
67508;SDS011;54354;44.724;11.284;2022-09-09T02:32:09;12.73;;;7.68;;
67508;SDS011;54354;44.724;11.284;2022-09-09T02:34:45;13.05;;;7.53;;
67508;SDS011;54354;44.724;11.284;2022-09-09T02:37:15;13.27;;;7.70;;
67508;SDS011;54354;44.724;11.284;2022-09-09T02:39:47;11.40;;;7.63;;
67508;SDS011;54354;44.724;11.284;2022-09-09T02:42:17;13.57;;;8.13;;
67508;SDS011;54354;44.724;11.284;2022-09-09T02:44:43;12.02;;;8.20;;
67508;SDS011;54354;44.724;11.284;2022-09-09T02:47:28;11.88;;;8.40;;
67508;SDS011;54354;44.724;11.284;2022-09-09T02:52:54;20.23;;;9.70;;
67508;SDS011;54354;44.724;11.284;2022-09-09T02:57:59;16.92;;;9.32;;
67508;SDS011;54354;44.724;11.284;2022-09-09T03:00:28;16.42;;;9.88;;
67508;SDS011;54354;44.724;11.284;2022-09-09T03:02:58;19.42;;;10.02;;
67508;SDS011;54354;44.724;11.284;2022-09-09T03:05:24;16.15;;;10.07;;
67508;SDS011;54354;44.724;11.284;2022-09-09T03:07:50;19.35;;;10.32;;
67508;SDS011;54354;44.724;11.284;2022-09-09T03:10:18;17.25;;;11.25;;
67508;SDS011;54354;44.724;11.284;2022-09-09T03:12:43;18.38;;;10.20;;
67508;SDS011;54354;44.724;11.284;2022-09-09T03:15:09;19.65;;;11.73;;
67508;SDS011;54354;44.724;11.284;2022-09-09T03:17:37;19.05;;;11.18;;
67508;SDS011;54354;44.724;11.284;2022-09-09T03:20:05;23.40;;;12.00;;
67508;SDS011;54354;44.724;11.284;2022-09-09T03:22:31;25.38;;;11.80;;
67508;SDS011;54354;44.724;11.284;2022-09-09T03:24:59;25.30;;;12.88;;
67508;SDS011;54354;44.724;11.284;2022-09-09T03:27:24;20.48;;;12.15;;
67508;SDS011;54354;44.724;11.284;2022-09-09T03:29:51;21.45;;;12.90;;
67508;SDS011;54354;44.724;11.284;2022-09-09T03:32:19;24.65;;;13.32;;
67508;SDS011;54354;44.724;11.284;2022-09-09T03:34:48;20.83;;;13.00;;
67508;SDS011;54354;44.724;11.284;2022-09-09T03:37:18;24.25;;;13.93;;
67508;SDS011;54354;44.724;11.284;2022-09-09T03:39:45;33.50;;;14.50;;
67508;SDS011;54354;44.724;11.284;2022-09-09T03:42:12;30.10;;;13.85;;
67508;SDS011;54354;44.724;11.284;2022-09-09T03:44:40;26.88;;;13.05;;
67508;SDS011;54354;44.724;11.284;2022-09-09T03:47:07;21.63;;;11.30;;
67508;SDS011;54354;44.724;11.284;2022-09-09T03:49:33;21.73;;;11.00;;
67508;SDS011;54354;44.724;11.284;2022-09-09T03:51:59;14.43;;;10.30;;
67508;SDS011;54354;44.724;11.284;2022-09-09T03:54:26;15.95;;;8.75;;
67508;SDS011;54354;44.724;11.284;2022-09-09T03:56:52;18.48;;;9.57;;
67508;SDS011;54354;44.724;11.284;2022-09-09T03:59:18;17.48;;;10.18;;
67508;SDS011;54354;44.724;11.284;2022-09-09T04:01:45;18.75;;;10.77;;
67508;SDS011;54354;44.724;11.284;2022-09-09T04:04:12;22.23;;;12.95;;
67508;SDS011;54354;44.724;11.284;2022-09-09T04:06:38;25.27;;;12.35;;
67508;SDS011;54354;44.724;11.284;2022-09-09T04:09:04;22.88;;;11.68;;
67508;SDS011;54354;44.724;11.284;2022-09-09T04:11:30;23.10;;;12.00;;
67508;SDS011;54354;44.724;11.284;2022-09-09T04:13:57;19.48;;;12.73;;
67508;SDS011;54354;44.724;11.284;2022-09-09T04:16:23;23.60;;;13.60;;
67508;SDS011;54354;44.724;11.284;2022-09-09T04:18:49;25.15;;;13.10;;
67508;SDS011;54354;44.724;11.284;2022-09-09T04:21:16;29.08;;;13.73;;
67508;SDS011;54354;44.724;11.284;2022-09-09T04:23:42;22.98;;;13.35;;
67508;SDS011;54354;44.724;11.284;2022-09-09T04:26:08;21.77;;;13.70;;
67508;SDS011;54354;44.724;11.284;2022-09-09T04:28:35;27.80;;;14.65;;
67508;SDS011;54354;44.724;11.284;2022-09-09T04:31:06;23.55;;;13.70;;
67508;SDS011;54354;44.724;11.284;2022-09-09T04:33:35;30.80;;;14.48;;
67508;SDS011;54354;44.724;11.284;2022-09-09T04:36:01;23.45;;;13.73;;
67508;SDS011;54354;44.724;11.284;2022-09-09T04:38:26;23.40;;;13.90;;
67508;SDS011;54354;44.724;11.284;2022-09-09T04:40:54;25.08;;;13.98;;
67508;SDS011;54354;44.724;11.284;2022-09-09T04:43:20;27.08;;;15.55;;
67508;SDS011;54354;44.724;11.284;2022-09-09T04:45:48;27.92;;;15.00;;
67508;SDS011;54354;44.724;11.284;2022-09-09T04:48:14;28.38;;;14.80;;
67508;SDS011;54354;44.724;11.284;2022-09-09T04:50:40;23.20;;;15.85;;
67508;SDS011;54354;44.724;11.284;2022-09-09T04:53:08;31.92;;;14.85;;
67508;SDS011;54354;44.724;11.284;2022-09-09T04:55:36;46.70;;;18.23;;
67508;SDS011;54354;44.724;11.284;2022-09-09T04:58:05;43.47;;;19.52;;
67508;SDS011;54354;44.724;11.284;2022-09-09T05:00:31;51.60;;;22.48;;
67508;SDS011;54354;44.724;11.284;2022-09-09T05:03:02;48.70;;;23.27;;
67508;SDS011;54354;44.724;11.284;2022-09-09T05:05:29;66.07;;;26.27;;
67508;SDS011;54354;44.724;11.284;2022-09-09T05:08:00;81.18;;;27.50;;
67508;SDS011;54354;44.724;11.284;2022-09-09T05:10:29;92.28;;;27.48;;
67508;SDS011;54354;44.724;11.284;2022-09-09T05:12:57;83.72;;;29.38;;
67508;SDS011;54354;44.724;11.284;2022-09-09T05:15:25;96.22;;;29.55;;
67508;SDS011;54354;44.724;11.284;2022-09-09T05:17:51;75.18;;;28.30;;
67508;SDS011;54354;44.724;11.284;2022-09-09T05:20:19;100.05;;;30.42;;
67508;SDS011;54354;44.724;11.284;2022-09-09T05:22:45;88.55;;;30.13;;
67508;SDS011;54354;44.724;11.284;2022-09-09T05:25:10;296.08;;;30.65;;
67508;SDS011;54354;44.724;11.284;2022-09-09T05:27:36;131.43;;;32.38;;
67508;SDS011;54354;44.724;11.284;2022-09-09T05:30:03;137.43;;;30.98;;
67508;SDS011;54354;44.724;11.284;2022-09-09T05:32:30;118.50;;;32.53;;
67508;SDS011;54354;44.724;11.284;2022-09-09T05:34:58;129.98;;;32.50;;
67508;SDS011;54354;44.724;11.284;2022-09-09T05:37:24;154.45;;;33.17;;
67508;SDS011;54354;44.724;11.284;2022-09-09T05:39:49;145.57;;;35.03;;
67508;SDS011;54354;44.724;11.284;2022-09-09T05:42:16;223.95;;;33.45;;
67508;SDS011;54354;44.724;11.284;2022-09-09T05:44:43;183.75;;;33.50;;
67508;SDS011;54354;44.724;11.284;2022-09-09T05:47:10;137.15;;;33.38;;
67508;SDS011;54354;44.724;11.284;2022-09-09T05:49:36;253.25;;;33.45;;
67508;SDS011;54354;44.724;11.284;2022-09-09T05:52:02;108.00;;;31.65;;
67508;SDS011;54354;44.724;11.284;2022-09-09T05:54:29;146.18;;;31.85;;
67508;SDS011;54354;44.724;11.284;2022-09-09T05:56:55;133.15;;;31.90;;
67508;SDS011;54354;44.724;11.284;2022-09-09T05:59:21;98.38;;;33.25;;
67508;SDS011;54354;44.724;11.284;2022-09-09T06:01:50;196.43;;;30.58;;
67508;SDS011;54354;44.724;11.284;2022-09-09T06:04:24;106.75;;;30.73;;
67508;SDS011;54354;44.724;11.284;2022-09-09T06:06:50;100.30;;;30.63;;
67508;SDS011;54354;44.724;11.284;2022-09-09T06:09:17;154.35;;;28.58;;
67508;SDS011;54354;44.724;11.284;2022-09-09T06:11:43;96.25;;;30.35;;
67508;SDS011;54354;44.724;11.284;2022-09-09T06:14:10;79.80;;;29.77;;
67508;SDS011;54354;44.724;11.284;2022-09-09T06:16:37;110.60;;;25.85;;
67508;SDS011;54354;44.724;11.284;2022-09-09T06:19:04;107.45;;;25.27;;
67508;SDS011;54354;44.724;11.284;2022-09-09T06:21:31;65.03;;;26.55;;
67508;SDS011;54354;44.724;11.284;2022-09-09T06:24:00;83.55;;;26.02;;
67508;SDS011;54354;44.724;11.284;2022-09-09T06:28:56;117.47;;;23.10;;
67508;SDS011;54354;44.724;11.284;2022-09-09T06:31:24;55.03;;;23.75;;
67508;SDS011;54354;44.724;11.284;2022-09-09T06:33:56;46.78;;;24.08;;
67508;SDS011;54354;44.724;11.284;2022-09-09T06:36:31;118.72;;;23.80;;
67508;SDS011;54354;44.724;11.284;2022-09-09T06:38:59;71.03;;;25.83;;
67508;SDS011;54354;44.724;11.284;2022-09-09T06:41:26;43.70;;;25.00;;
67508;SDS011;54354;44.724;11.284;2022-09-09T06:43:54;69.22;;;23.83;;
67508;SDS011;54354;44.724;11.284;2022-09-09T06:46:28;69.40;;;24.05;;
67508;SDS011;54354;44.724;11.284;2022-09-09T06:48:57;44.30;;;23.05;;
67508;SDS011;54354;44.724;11.284;2022-09-09T06:51:25;48.53;;;24.15;;
67508;SDS011;54354;44.724;11.284;2022-09-09T06:53:53;36.13;;;20.52;;
67508;SDS011;54354;44.724;11.284;2022-09-09T06:56:23;32.10;;;19.98;;
67508;SDS011;54354;44.724;11.284;2022-09-09T06:59:06;34.25;;;19.92;;
67508;SDS011;54354;44.724;11.284;2022-09-09T07:01:35;36.70;;;20.15;;
67508;SDS011;54354;44.724;11.284;2022-09-09T07:04:06;36.05;;;18.60;;
67508;SDS011;54354;44.724;11.284;2022-09-09T07:06:35;28.80;;;17.05;;
67508;SDS011;54354;44.724;11.284;2022-09-09T07:09:11;33.90;;;17.27;;
67508;SDS011;54354;44.724;11.284;2022-09-09T07:11:42;29.48;;;18.08;;
67508;SDS011;54354;44.724;11.284;2022-09-09T07:14:10;31.95;;;18.80;;
67508;SDS011;54354;44.724;11.284;2022-09-09T07:16:41;29.63;;;17.52;;
67508;SDS011;54354;44.724;11.284;2022-09-09T07:19:08;31.40;;;16.60;;
67508;SDS011;54354;44.724;11.284;2022-09-09T07:21:35;25.83;;;16.50;;
67508;SDS011;54354;44.724;11.284;2022-09-09T07:24:01;29.30;;;16.85;;
67508;SDS011;54354;44.724;11.284;2022-09-09T07:26:28;26.30;;;16.42;;
67508;SDS011;54354;44.724;11.284;2022-09-09T07:28:57;27.27;;;15.88;;
67508;SDS011;54354;44.724;11.284;2022-09-09T07:31:24;26.33;;;15.10;;
67508;SDS011;54354;44.724;11.284;2022-09-09T07:33:53;23.70;;;14.30;;
67508;SDS011;54354;44.724;11.284;2022-09-09T07:36:23;23.83;;;15.00;;
67508;SDS011;54354;44.724;11.284;2022-09-09T07:38:53;26.98;;;16.42;;
67508;SDS011;54354;44.724;11.284;2022-09-09T07:41:23;29.33;;;16.42;;
67508;SDS011;54354;44.724;11.284;2022-09-09T07:43:50;27.02;;;15.85;;
67508;SDS011;54354;44.724;11.284;2022-09-09T07:46:19;22.65;;;14.50;;
67508;SDS011;54354;44.724;11.284;2022-09-09T07:48:48;18.90;;;13.35;;
67508;SDS011;54354;44.724;11.284;2022-09-09T07:51:19;20.00;;;12.13;;
67508;SDS011;54354;44.724;11.284;2022-09-09T07:53:52;18.13;;;11.57;;
67508;SDS011;54354;44.724;11.284;2022-09-09T07:56:19;22.90;;;15.50;;
67508;SDS011;54354;44.724;11.284;2022-09-09T07:58:47;25.80;;;14.98;;
67508;SDS011;54354;44.724;11.284;2022-09-09T08:01:15;22.80;;;14.43;;
67508;SDS011;54354;44.724;11.284;2022-09-09T08:03:47;23.33;;;14.55;;
67508;SDS011;54354;44.724;11.284;2022-09-09T08:06:18;24.10;;;14.75;;
67508;SDS011;54354;44.724;11.284;2022-09-09T08:08:44;19.70;;;11.88;;
67508;SDS011;54354;44.724;11.284;2022-09-09T08:11:13;19.35;;;12.30;;
67508;SDS011;54354;44.724;11.284;2022-09-09T08:13:42;15.40;;;11.43;;
67508;SDS011;54354;44.724;11.284;2022-09-09T08:16:15;18.33;;;11.57;;
67508;SDS011;54354;44.724;11.284;2022-09-09T08:18:52;20.38;;;12.40;;
67508;SDS011;54354;44.724;11.284;2022-09-09T08:21:23;19.27;;;12.18;;
67508;SDS011;54354;44.724;11.284;2022-09-09T08:23:51;20.42;;;11.43;;
67508;SDS011;54354;44.724;11.284;2022-09-09T08:26:22;22.33;;;12.23;;
67508;SDS011;54354;44.724;11.284;2022-09-09T08:28:50;23.48;;;13.07;;
67508;SDS011;54354;44.724;11.284;2022-09-09T08:31:22;15.68;;;9.15;;
67508;SDS011;54354;44.724;11.284;2022-09-09T08:33:50;17.13;;;10.40;;
67508;SDS011;54354;44.724;11.284;2022-09-09T08:36:20;15.70;;;8.05;;
67508;SDS011;54354;44.724;11.284;2022-09-09T08:38:51;15.00;;;7.07;;
67508;SDS011;54354;44.724;11.284;2022-09-09T08:43:51;9.48;;;5.80;;
67508;SDS011;54354;44.724;11.284;2022-09-09T08:52:21;8.90;;;5.13;;
67508;SDS011;54354;44.724;11.284;2022-09-09T08:54:50;16.33;;;7.38;;
67508;SDS011;54354;44.724;11.284;2022-09-09T08:57:19;10.13;;;5.60;;
67508;SDS011;54354;44.724;11.284;2022-09-09T08:59:53;9.30;;;4.82;;
67508;SDS011;54354;44.724;11.284;2022-09-09T09:02:23;10.25;;;4.30;;
67508;SDS011;54354;44.724;11.284;2022-09-09T09:07:46;8.95;;;5.00;;
67508;SDS011;54354;44.724;11.284;2022-09-09T09:12:55;11.88;;;4.72;;
67508;SDS011;54354;44.724;11.284;2022-09-09T09:15:26;9.98;;;5.53;;
67508;SDS011;54354;44.724;11.284;2022-09-09T09:17:59;7.38;;;4.10;;
67508;SDS011;54354;44.724;11.284;2022-09-09T09:20:32;8.35;;;4.85;;
67508;SDS011;54354;44.724;11.284;2022-09-09T09:23:13;11.57;;;4.80;;
67508;SDS011;54354;44.724;11.284;2022-09-09T09:25:46;9.40;;;4.07;;
67508;SDS011;54354;44.724;11.284;2022-09-09T09:28:14;5.53;;;3.70;;
67508;SDS011;54354;44.724;11.284;2022-09-09T09:30:50;6.20;;;3.30;;
67508;SDS011;54354;44.724;11.284;2022-09-09T09:33:23;6.60;;;3.03;;
67508;SDS011;54354;44.724;11.284;2022-09-09T09:35:52;6.18;;;2.90;;
67508;SDS011;54354;44.724;11.284;2022-09-09T09:38:21;6.55;;;3.00;;
67508;SDS011;54354;44.724;11.284;2022-09-09T09:40:52;5.25;;;2.90;;
67508;SDS011;54354;44.724;11.284;2022-09-09T09:43:40;4.95;;;2.95;;
67508;SDS011;54354;44.724;11.284;2022-09-09T09:46:21;5.97;;;2.67;;
67508;SDS011;54354;44.724;11.284;2022-09-09T09:48:56;5.40;;;2.72;;
67508;SDS011;54354;44.724;11.284;2022-09-09T09:51:27;4.20;;;2.80;;
67508;SDS011;54354;44.724;11.284;2022-09-09T09:54:03;5.35;;;2.42;;
67508;SDS011;54354;44.724;11.284;2022-09-09T09:56:32;3.90;;;2.40;;
67508;SDS011;54354;44.724;11.284;2022-09-09T09:58:59;5.80;;;2.65;;
67508;SDS011;54354;44.724;11.284;2022-09-09T10:01:32;3.88;;;2.40;;
67508;SDS011;54354;44.724;11.284;2022-09-09T10:04:12;4.43;;;2.50;;
67508;SDS011;54354;44.724;11.284;2022-09-09T10:06:41;5.00;;;2.50;;
67508;SDS011;54354;44.724;11.284;2022-09-09T10:09:23;7.38;;;2.47;;
67508;SDS011;54354;44.724;11.284;2022-09-09T10:20:10;5.20;;;2.08;;
67508;SDS011;54354;44.724;11.284;2022-09-09T10:22:46;8.73;;;2.00;;
67508;SDS011;54354;44.724;11.284;2022-09-09T10:31:01;9.43;;;1.50;;
67508;SDS011;54354;44.724;11.284;2022-09-09T10:39:00;3.28;;;1.10;;
67508;SDS011;54354;44.724;11.284;2022-09-09T10:44:37;6.20;;;1.10;;
67508;SDS011;54354;44.724;11.284;2022-09-09T10:55:39;6.70;;;1.70;;
67508;SDS011;54354;44.724;11.284;2022-09-09T10:58:10;8.05;;;1.63;;
67508;SDS011;54354;44.724;11.284;2022-09-09T11:00:42;2.05;;;1.10;;
67508;SDS011;54354;44.724;11.284;2022-09-09T11:03:15;9.07;;;1.67;;
67508;SDS011;54354;44.724;11.284;2022-09-09T11:05:59;7.43;;;1.48;;
67508;SDS011;54354;44.724;11.284;2022-09-09T11:08:30;5.60;;;1.50;;
67508;SDS011;54354;44.724;11.284;2022-09-09T11:21:51;2.92;;;1.30;;
67508;SDS011;54354;44.724;11.284;2022-09-09T11:24:22;5.22;;;1.23;;
67508;SDS011;54354;44.724;11.284;2022-09-09T11:38:46;9.32;;;1.50;;
67508;SDS011;54354;44.724;11.284;2022-09-09T11:41:16;3.42;;;1.00;;
67508;SDS011;54354;44.724;11.284;2022-09-09T11:46:21;2.65;;;1.40;;
67508;SDS011;54354;44.724;11.284;2022-09-09T11:49:03;5.45;;;1.40;;
67508;SDS011;54354;44.724;11.284;2022-09-09T11:51:31;4.72;;;1.38;;
67508;SDS011;54354;44.724;11.284;2022-09-09T11:53:59;3.03;;;1.40;;
67508;SDS011;54354;44.724;11.284;2022-09-09T11:56:43;3.25;;;1.30;;
67508;SDS011;54354;44.724;11.284;2022-09-09T11:59:19;5.22;;;1.50;;
67508;SDS011;54354;44.724;11.284;2022-09-09T12:01:54;3.42;;;1.35;;
67508;SDS011;54354;44.724;11.284;2022-09-09T12:17:43;3.58;;;1.30;;
67508;SDS011;54354;44.724;11.284;2022-09-09T12:23:01;3.65;;;1.20;;
67508;SDS011;54354;44.724;11.284;2022-09-09T12:31:23;3.85;;;1.60;;
67508;SDS011;54354;44.724;11.284;2022-09-09T12:33:53;4.03;;;1.35;;
67508;SDS011;54354;44.724;11.284;2022-09-09T12:36:23;2.63;;;1.27;;
67508;SDS011;54354;44.724;11.284;2022-09-09T12:38:53;7.88;;;1.88;;
67508;SDS011;54354;44.724;11.284;2022-09-09T12:41:24;4.10;;;1.30;;
67508;SDS011;54354;44.724;11.284;2022-09-09T12:43:51;5.75;;;1.38;;
67508;SDS011;54354;44.724;11.284;2022-09-09T12:46:35;10.40;;;1.52;;
67508;SDS011;54354;44.724;11.284;2022-09-09T12:49:05;4.30;;;1.42;;
67508;SDS011;54354;44.724;11.284;2022-09-09T12:51:49;7.38;;;1.88;;
67508;SDS011;54354;44.724;11.284;2022-09-09T12:54:14;4.13;;;1.45;;
67508;SDS011;54354;44.724;11.284;2022-09-09T12:56:44;2.72;;;1.30;;
67508;SDS011;54354;44.724;11.284;2022-09-09T12:59:35;4.22;;;1.38;;
67508;SDS011;54354;44.724;11.284;2022-09-09T13:02:11;3.97;;;1.73;;
67508;SDS011;54354;44.724;11.284;2022-09-09T13:04:42;10.65;;;1.60;;
67508;SDS011;54354;44.724;11.284;2022-09-09T13:07:09;7.43;;;1.35;;
67508;SDS011;54354;44.724;11.284;2022-09-09T13:09:37;4.05;;;1.50;;
67508;SDS011;54354;44.724;11.284;2022-09-09T13:12:03;6.57;;;1.50;;
67508;SDS011;54354;44.724;11.284;2022-09-09T13:14:32;5.30;;;1.45;;
67508;SDS011;54354;44.724;11.284;2022-09-09T13:17:03;5.30;;;1.50;;
67508;SDS011;54354;44.724;11.284;2022-09-09T13:19:31;3.28;;;1.63;;
67508;SDS011;54354;44.724;11.284;2022-09-09T13:22:10;6.07;;;1.50;;
67508;SDS011;54354;44.724;11.284;2022-09-09T13:24:38;4.32;;;1.33;;
67508;SDS011;54354;44.724;11.284;2022-09-09T13:27:05;5.35;;;1.70;;
67508;SDS011;54354;44.724;11.284;2022-09-09T13:29:53;4.68;;;1.63;;
67508;SDS011;54354;44.724;11.284;2022-09-09T13:32:23;3.63;;;1.40;;
67508;SDS011;54354;44.724;11.284;2022-09-09T13:34:55;6.47;;;1.58;;
67508;SDS011;54354;44.724;11.284;2022-09-09T13:37:26;4.10;;;1.50;;
67508;SDS011;54354;44.724;11.284;2022-09-09T13:39:59;4.65;;;1.40;;
67508;SDS011;54354;44.724;11.284;2022-09-09T13:42:28;2.08;;;1.35;;
67508;SDS011;54354;44.724;11.284;2022-09-09T13:44:55;3.95;;;1.80;;
67508;SDS011;54354;44.724;11.284;2022-09-09T13:47:33;4.68;;;1.55;;
67508;SDS011;54354;44.724;11.284;2022-09-09T13:50:10;5.55;;;1.40;;
67508;SDS011;54354;44.724;11.284;2022-09-09T13:52:46;2.50;;;1.20;;
67508;SDS011;54354;44.724;11.284;2022-09-09T13:55:14;2.22;;;1.40;;
67508;SDS011;54354;44.724;11.284;2022-09-09T13:57:39;2.13;;;1.17;;
67508;SDS011;54354;44.724;11.284;2022-09-09T14:00:19;3.80;;;1.30;;
67508;SDS011;54354;44.724;11.284;2022-09-09T14:02:46;5.65;;;1.30;;
67508;SDS011;54354;44.724;11.284;2022-09-09T14:05:12;4.18;;;1.50;;
67508;SDS011;54354;44.724;11.284;2022-09-09T14:07:38;5.93;;;1.40;;
67508;SDS011;54354;44.724;11.284;2022-09-09T14:10:06;3.22;;;1.17;;
67508;SDS011;54354;44.724;11.284;2022-09-09T14:12:32;6.97;;;2.08;;
67508;SDS011;54354;44.724;11.284;2022-09-09T14:14:57;4.78;;;1.52;;
67508;SDS011;54354;44.724;11.284;2022-09-09T14:17:24;3.63;;;1.80;;
67508;SDS011;54354;44.724;11.284;2022-09-09T14:19:52;2.03;;;1.38;;
67508;SDS011;54354;44.724;11.284;2022-09-09T14:22:18;5.63;;;1.58;;
67508;SDS011;54354;44.724;11.284;2022-09-09T14:24:43;3.05;;;1.67;;
67508;SDS011;54354;44.724;11.284;2022-09-09T14:27:12;4.10;;;1.45;;
67508;SDS011;54354;44.724;11.284;2022-09-09T14:29:37;5.95;;;1.50;;
67508;SDS011;54354;44.724;11.284;2022-09-09T14:32:03;3.10;;;1.60;;
67508;SDS011;54354;44.724;11.284;2022-09-09T14:34:29;4.85;;;1.30;;
67508;SDS011;54354;44.724;11.284;2022-09-09T14:36:55;2.72;;;1.48;;
67508;SDS011;54354;44.724;11.284;2022-09-09T14:39:20;3.97;;;1.45;;
67508;SDS011;54354;44.724;11.284;2022-09-09T14:41:46;2.95;;;1.40;;
67508;SDS011;54354;44.724;11.284;2022-09-09T14:44:11;5.60;;;1.40;;
67508;SDS011;54354;44.724;11.284;2022-09-09T14:46:37;4.45;;;1.60;;
67508;SDS011;54354;44.724;11.284;2022-09-09T14:49:03;5.82;;;1.42;;
67508;SDS011;54354;44.724;11.284;2022-09-09T14:51:29;4.68;;;1.33;;
67508;SDS011;54354;44.724;11.284;2022-09-09T14:53:56;3.20;;;1.30;;
67508;SDS011;54354;44.724;11.284;2022-09-09T14:56:27;3.88;;;1.35;;
67508;SDS011;54354;44.724;11.284;2022-09-09T14:58:55;2.40;;;1.20;;
67508;SDS011;54354;44.724;11.284;2022-09-09T15:01:21;3.25;;;1.27;;
67508;SDS011;54354;44.724;11.284;2022-09-09T15:03:49;3.17;;;1.25;;
67508;SDS011;54354;44.724;11.284;2022-09-09T15:06:20;4.50;;;1.08;;
67508;SDS011;54354;44.724;11.284;2022-09-09T15:08:46;2.63;;;1.27;;
67508;SDS011;54354;44.724;11.284;2022-09-09T15:11:13;3.22;;;1.52;;
67508;SDS011;54354;44.724;11.284;2022-09-09T15:13:40;3.35;;;1.20;;
67508;SDS011;54354;44.724;11.284;2022-09-09T15:16:11;1.77;;;1.15;;
67508;SDS011;54354;44.724;11.284;2022-09-09T15:18:38;1.95;;;1.10;;
67508;SDS011;54354;44.724;11.284;2022-09-09T15:21:15;6.22;;;1.10;;
67508;SDS011;54354;44.724;11.284;2022-09-09T15:23:42;4.32;;;1.13;;
67508;SDS011;54354;44.724;11.284;2022-09-09T15:26:08;2.25;;;1.00;;
67508;SDS011;54354;44.724;11.284;2022-09-09T15:28:35;3.15;;;1.05;;
67508;SDS011;54354;44.724;11.284;2022-09-09T15:31:12;3.30;;;1.25;;
67508;SDS011;54354;44.724;11.284;2022-09-09T15:33:40;4.20;;;1.10;;
67508;SDS011;54354;44.724;11.284;2022-09-09T15:36:13;1.92;;;1.02;;
67508;SDS011;54354;44.724;11.284;2022-09-09T15:38:49;3.95;;;0.98;;
67508;SDS011;54354;44.724;11.284;2022-09-09T15:41:15;2.20;;;1.00;;
67508;SDS011;54354;44.724;11.284;2022-09-09T15:43:45;2.97;;;1.13;;
67508;SDS011;54354;44.724;11.284;2022-09-09T15:46:30;4.15;;;1.10;;
67508;SDS011;54354;44.724;11.284;2022-09-09T15:49:02;2.60;;;1.00;;
67508;SDS011;54354;44.724;11.284;2022-09-09T15:51:28;3.45;;;1.00;;
67508;SDS011;54354;44.724;11.284;2022-09-09T15:53:57;2.63;;;1.02;;
67508;SDS011;54354;44.724;11.284;2022-09-09T15:56:27;5.03;;;1.00;;
67508;SDS011;54354;44.724;11.284;2022-09-09T15:58:55;2.92;;;0.90;;
67508;SDS011;54354;44.724;11.284;2022-09-09T16:01:22;3.15;;;0.98;;
67508;SDS011;54354;44.724;11.284;2022-09-09T16:03:48;1.05;;;0.85;;
67508;SDS011;54354;44.724;11.284;2022-09-09T16:06:19;3.60;;;1.10;;
67508;SDS011;54354;44.724;11.284;2022-09-09T16:08:48;1.73;;;0.98;;
67508;SDS011;54354;44.724;11.284;2022-09-09T16:11:16;1.65;;;0.98;;
67508;SDS011;54354;44.724;11.284;2022-09-09T16:13:45;4.78;;;1.30;;
67508;SDS011;54354;44.724;11.284;2022-09-09T16:16:13;1.80;;;0.90;;
67508;SDS011;54354;44.724;11.284;2022-09-09T16:18:40;3.42;;;1.20;;
67508;SDS011;54354;44.724;11.284;2022-09-09T16:21:08;4.38;;;1.17;;
67508;SDS011;54354;44.724;11.284;2022-09-09T16:23:43;3.13;;;1.00;;
67508;SDS011;54354;44.724;11.284;2022-09-09T16:26:11;3.53;;;0.90;;
67508;SDS011;54354;44.724;11.284;2022-09-09T16:28:38;3.22;;;0.90;;
67508;SDS011;54354;44.724;11.284;2022-09-09T16:31:05;3.10;;;1.10;;
67508;SDS011;54354;44.724;11.284;2022-09-09T16:33:32;3.00;;;0.90;;
67508;SDS011;54354;44.724;11.284;2022-09-09T16:35:57;1.85;;;1.10;;
67508;SDS011;54354;44.724;11.284;2022-09-09T16:38:23;3.35;;;1.33;;
67508;SDS011;54354;44.724;11.284;2022-09-09T16:40:49;1.52;;;0.95;;
67508;SDS011;54354;44.724;11.284;2022-09-09T16:43:15;1.48;;;0.90;;
67508;SDS011;54354;44.724;11.284;2022-09-09T16:45:44;1.58;;;1.08;;
67508;SDS011;54354;44.724;11.284;2022-09-09T16:48:11;1.38;;;1.00;;
67508;SDS011;54354;44.724;11.284;2022-09-09T16:50:37;1.95;;;0.88;;
67508;SDS011;54354;44.724;11.284;2022-09-09T16:53:04;3.47;;;1.10;;
67508;SDS011;54354;44.724;11.284;2022-09-09T16:55:31;1.92;;;0.95;;
67508;SDS011;54354;44.724;11.284;2022-09-09T16:57:57;2.13;;;1.13;;
67508;SDS011;54354;44.724;11.284;2022-09-09T17:00:23;2.95;;;1.33;;
67508;SDS011;54354;44.724;11.284;2022-09-09T17:02:48;2.25;;;0.90;;